Terminal Aerodrome Forecast
Issued by NWS

Home | Current Version | Previous Version | Text Only | Print | Product List | Glossary On
Versions: 1 2 3 4 5 6 7 8 9 10 11 12 13 14 15 16 17
000
FTUS42 TJSJ 280245 CCA
TAFISX
TAF COR
TISX 280245Z 2803/2824 11008KT P6SM VCSH SCT020 SCT030
     FM281300 12010KT P6SM VCSH SCT030 BKN070
     FM282330 09007KT P6SM FEW030 BKN070=

USA.gov is the U.S. government's official web portal to all federal, state and local government web resources and services.